sensor_id;sensor_type;location;lat;lon;timestamp;P1;durP1;ratioP1;P2;durP2;ratioP2
9759;SDS011;4919;48.792;9.202;2023-02-03T00:00:20;10.67;;;4.10;;
9759;SDS011;4919;48.792;9.202;2023-02-03T00:03:04;6.17;;;3.83;;
9759;SDS011;4919;48.792;9.202;2023-02-03T00:05:49;9.10;;;3.60;;
9759;SDS011;4919;48.792;9.202;2023-02-03T00:08:35;7.57;;;3.57;;
9759;SDS011;4919;48.792;9.202;2023-02-03T00:11:21;9.73;;;3.83;;
9759;SDS011;4919;48.792;9.202;2023-02-03T00:14:06;8.60;;;3.37;;
9759;SDS011;4919;48.792;9.202;2023-02-03T00:16:51;11.90;;;4.30;;
9759;SDS011;4919;48.792;9.202;2023-02-03T00:19:36;7.77;;;3.80;;
9759;SDS011;4919;48.792;9.202;2023-02-03T00:22:20;9.13;;;4.10;;
9759;SDS011;4919;48.792;9.202;2023-02-03T00:25:05;9.63;;;4.30;;
9759;SDS011;4919;48.792;9.202;2023-02-03T00:27:50;11.40;;;4.43;;
9759;SDS011;4919;48.792;9.202;2023-02-03T00:30:35;10.90;;;4.67;;
9759;SDS011;4919;48.792;9.202;2023-02-03T00:33:20;12.67;;;4.63;;
9759;SDS011;4919;48.792;9.202;2023-02-03T00:36:05;16.97;;;4.70;;
9759;SDS011;4919;48.792;9.202;2023-02-03T00:38:50;15.77;;;5.40;;
9759;SDS011;4919;48.792;9.202;2023-02-03T00:41:35;8.83;;;4.93;;
9759;SDS011;4919;48.792;9.202;2023-02-03T00:44:20;15.13;;;5.90;;
9759;SDS011;4919;48.792;9.202;2023-02-03T00:47:05;9.00;;;5.80;;
9759;SDS011;4919;48.792;9.202;2023-02-03T00:49:50;16.80;;;5.90;;
9759;SDS011;4919;48.792;9.202;2023-02-03T00:52:35;17.13;;;5.67;;
9759;SDS011;4919;48.792;9.202;2023-02-03T00:55:20;10.50;;;5.53;;
9759;SDS011;4919;48.792;9.202;2023-02-03T00:58:04;11.07;;;5.80;;
9759;SDS011;4919;48.792;9.202;2023-02-03T01:00:49;15.53;;;6.43;;
9759;SDS011;4919;48.792;9.202;2023-02-03T01:03:34;17.50;;;6.63;;
9759;SDS011;4919;48.792;9.202;2023-02-03T01:06:19;14.27;;;5.83;;
9759;SDS011;4919;48.792;9.202;2023-02-03T01:09:04;12.90;;;6.50;;
9759;SDS011;4919;48.792;9.202;2023-02-03T01:11:49;14.67;;;6.03;;
9759;SDS011;4919;48.792;9.202;2023-02-03T01:14:34;16.73;;;5.97;;
9759;SDS011;4919;48.792;9.202;2023-02-03T01:17:19;16.07;;;6.90;;
9759;SDS011;4919;48.792;9.202;2023-02-03T01:20:04;14.57;;;5.97;;
9759;SDS011;4919;48.792;9.202;2023-02-03T01:22:49;14.17;;;6.80;;
9759;SDS011;4919;48.792;9.202;2023-02-03T01:25:34;14.23;;;6.57;;
9759;SDS011;4919;48.792;9.202;2023-02-03T01:28:19;13.77;;;6.03;;
9759;SDS011;4919;48.792;9.202;2023-02-03T01:31:12;14.67;;;6.90;;
9759;SDS011;4919;48.792;9.202;2023-02-03T01:34:02;14.93;;;6.73;;
9759;SDS011;4919;48.792;9.202;2023-02-03T01:36:47;14.87;;;6.70;;
9759;SDS011;4919;48.792;9.202;2023-02-03T01:39:32;14.80;;;7.77;;
9759;SDS011;4919;48.792;9.202;2023-02-03T01:42:17;19.07;;;7.70;;
9759;SDS011;4919;48.792;9.202;2023-02-03T01:45:02;14.40;;;7.60;;
9759;SDS011;4919;48.792;9.202;2023-02-03T01:47:47;14.27;;;7.50;;
9759;SDS011;4919;48.792;9.202;2023-02-03T01:50:37;17.37;;;7.80;;
9759;SDS011;4919;48.792;9.202;2023-02-03T01:53:21;17.07;;;8.57;;
9759;SDS011;4919;48.792;9.202;2023-02-03T01:56:06;17.10;;;8.03;;
9759;SDS011;4919;48.792;9.202;2023-02-03T01:58:52;16.03;;;8.40;;
9759;SDS011;4919;48.792;9.202;2023-02-03T02:01:37;11.53;;;7.63;;
9759;SDS011;4919;48.792;9.202;2023-02-03T02:04:24;19.53;;;8.40;;
9759;SDS011;4919;48.792;9.202;2023-02-03T02:07:13;16.37;;;7.60;;
9759;SDS011;4919;48.792;9.202;2023-02-03T02:09:58;14.10;;;7.30;;
9759;SDS011;4919;48.792;9.202;2023-02-03T02:12:43;14.03;;;7.57;;
9759;SDS011;4919;48.792;9.202;2023-02-03T02:15:38;13.73;;;7.47;;
9759;SDS011;4919;48.792;9.202;2023-02-03T02:37:43;9.83;;;5.40;;
9759;SDS011;4919;48.792;9.202;2023-02-03T02:40:41;10.03;;;5.13;;
9759;SDS011;4919;48.792;9.202;2023-02-03T02:43:49;9.53;;;4.83;;
9759;SDS011;4919;48.792;9.202;2023-02-03T02:46:51;7.53;;;4.50;;
9759;SDS011;4919;48.792;9.202;2023-02-03T02:49:45;6.50;;;4.53;;
9759;SDS011;4919;48.792;9.202;2023-02-03T02:52:41;8.07;;;4.17;;
9759;SDS011;4919;48.792;9.202;2023-02-03T02:55:30;6.93;;;4.23;;
9759;SDS011;4919;48.792;9.202;2023-02-03T02:58:17;6.73;;;4.20;;
9759;SDS011;4919;48.792;9.202;2023-02-03T03:01:05;7.37;;;3.97;;
9759;SDS011;4919;48.792;9.202;2023-02-03T03:03:51;7.73;;;4.30;;
9759;SDS011;4919;48.792;9.202;2023-02-03T03:06:38;7.17;;;4.07;;
9759;SDS011;4919;48.792;9.202;2023-02-03T03:09:35;6.43;;;3.57;;
9759;SDS011;4919;48.792;9.202;2023-02-03T03:12:27;6.07;;;3.50;;
9759;SDS011;4919;48.792;9.202;2023-02-03T03:15:16;5.73;;;3.57;;
9759;SDS011;4919;48.792;9.202;2023-02-03T03:18:16;4.83;;;3.40;;
9759;SDS011;4919;48.792;9.202;2023-02-03T03:21:02;3.93;;;3.33;;
9759;SDS011;4919;48.792;9.202;2023-02-03T03:23:49;6.00;;;3.10;;
9759;SDS011;4919;48.792;9.202;2023-02-03T03:26:43;4.33;;;3.37;;
9759;SDS011;4919;48.792;9.202;2023-02-03T03:29:35;4.73;;;2.87;;
9759;SDS011;4919;48.792;9.202;2023-02-03T03:32:31;5.17;;;3.40;;
9759;SDS011;4919;48.792;9.202;2023-02-03T03:35:17;3.53;;;3.00;;
9759;SDS011;4919;48.792;9.202;2023-02-03T03:38:05;4.60;;;3.10;;
9759;SDS011;4919;48.792;9.202;2023-02-03T03:41:00;4.07;;;3.33;;
9759;SDS011;4919;48.792;9.202;2023-02-03T03:43:51;5.83;;;3.57;;
9759;SDS011;4919;48.792;9.202;2023-02-03T03:46:40;5.07;;;3.37;;
9759;SDS011;4919;48.792;9.202;2023-02-03T03:49:35;4.87;;;3.60;;
9759;SDS011;4919;48.792;9.202;2023-02-03T03:52:25;7.10;;;3.90;;
9759;SDS011;4919;48.792;9.202;2023-02-03T03:55:14;5.10;;;3.30;;
9759;SDS011;4919;48.792;9.202;2023-02-03T03:58:06;4.67;;;3.70;;
9759;SDS011;4919;48.792;9.202;2023-02-03T04:00:57;4.60;;;3.80;;
9759;SDS011;4919;48.792;9.202;2023-02-03T04:03:47;5.37;;;3.87;;
9759;SDS011;4919;48.792;9.202;2023-02-03T04:06:39;5.23;;;4.10;;
9759;SDS011;4919;48.792;9.202;2023-02-03T04:09:24;6.70;;;4.20;;
9759;SDS011;4919;48.792;9.202;2023-02-03T04:12:12;7.30;;;4.20;;
9759;SDS011;4919;48.792;9.202;2023-02-03T04:15:05;6.93;;;4.83;;
9759;SDS011;4919;48.792;9.202;2023-02-03T04:17:50;5.77;;;4.53;;
9759;SDS011;4919;48.792;9.202;2023-02-03T04:20:35;7.77;;;4.87;;
9759;SDS011;4919;48.792;9.202;2023-02-03T04:23:20;8.47;;;5.20;;
9759;SDS011;4919;48.792;9.202;2023-02-03T04:26:05;7.90;;;5.50;;
9759;SDS011;4919;48.792;9.202;2023-02-03T04:28:50;7.53;;;5.63;;
9759;SDS011;4919;48.792;9.202;2023-02-03T04:31:35;7.63;;;5.30;;
9759;SDS011;4919;48.792;9.202;2023-02-03T04:34:20;8.83;;;6.40;;
9759;SDS011;4919;48.792;9.202;2023-02-03T04:37:04;10.53;;;6.47;;
9759;SDS011;4919;48.792;9.202;2023-02-03T04:39:49;11.13;;;6.60;;
9759;SDS011;4919;48.792;9.202;2023-02-03T04:42:38;11.77;;;7.07;;
9759;SDS011;4919;48.792;9.202;2023-02-03T04:45:23;10.97;;;7.30;;
9759;SDS011;4919;48.792;9.202;2023-02-03T04:48:08;12.63;;;8.10;;
9759;SDS011;4919;48.792;9.202;2023-02-03T04:50:53;12.93;;;7.80;;
9759;SDS011;4919;48.792;9.202;2023-02-03T04:53:38;13.37;;;8.73;;
9759;SDS011;4919;48.792;9.202;2023-02-03T04:56:23;16.57;;;9.43;;
9759;SDS011;4919;48.792;9.202;2023-02-03T04:59:07;15.87;;;9.20;;
9759;SDS011;4919;48.792;9.202;2023-02-03T05:01:52;18.00;;;9.50;;
9759;SDS011;4919;48.792;9.202;2023-02-03T05:04:37;21.20;;;10.53;;
9759;SDS011;4919;48.792;9.202;2023-02-03T05:07:22;17.67;;;10.27;;
9759;SDS011;4919;48.792;9.202;2023-02-03T05:10:07;20.90;;;11.43;;
9759;SDS011;4919;48.792;9.202;2023-02-03T05:12:52;20.80;;;10.73;;
9759;SDS011;4919;48.792;9.202;2023-02-03T05:15:37;23.33;;;12.43;;
9759;SDS011;4919;48.792;9.202;2023-02-03T05:18:22;28.60;;;13.03;;
9759;SDS011;4919;48.792;9.202;2023-02-03T05:21:07;26.37;;;12.93;;
9759;SDS011;4919;48.792;9.202;2023-02-03T05:23:52;28.37;;;14.30;;
9759;SDS011;4919;48.792;9.202;2023-02-03T05:26:37;27.23;;;13.57;;
9759;SDS011;4919;48.792;9.202;2023-02-03T05:29:21;29.80;;;15.07;;
9759;SDS011;4919;48.792;9.202;2023-02-03T05:32:06;32.33;;;14.17;;
9759;SDS011;4919;48.792;9.202;2023-02-03T05:34:51;28.27;;;15.43;;
9759;SDS011;4919;48.792;9.202;2023-02-03T05:37:36;31.67;;;16.37;;
9759;SDS011;4919;48.792;9.202;2023-02-03T05:40:21;32.97;;;16.00;;
9759;SDS011;4919;48.792;9.202;2023-02-03T05:43:06;37.90;;;17.53;;
9759;SDS011;4919;48.792;9.202;2023-02-03T05:45:50;38.33;;;17.40;;
9759;SDS011;4919;48.792;9.202;2023-02-03T05:48:35;38.30;;;17.00;;
9759;SDS011;4919;48.792;9.202;2023-02-03T05:51:20;36.53;;;16.83;;
9759;SDS011;4919;48.792;9.202;2023-02-03T05:54:05;35.93;;;17.10;;
9759;SDS011;4919;48.792;9.202;2023-02-03T05:56:50;38.60;;;17.47;;
9759;SDS011;4919;48.792;9.202;2023-02-03T05:59:35;38.83;;;17.57;;
9759;SDS011;4919;48.792;9.202;2023-02-03T06:02:20;40.20;;;18.87;;
9759;SDS011;4919;48.792;9.202;2023-02-03T06:05:05;41.87;;;18.23;;
9759;SDS011;4919;48.792;9.202;2023-02-03T06:07:50;41.37;;;16.83;;
9759;SDS011;4919;48.792;9.202;2023-02-03T06:10:35;42.40;;;18.37;;
9759;SDS011;4919;48.792;9.202;2023-02-03T06:13:20;41.73;;;18.40;;
9759;SDS011;4919;48.792;9.202;2023-02-03T06:16:05;43.17;;;18.13;;
9759;SDS011;4919;48.792;9.202;2023-02-03T06:18:50;46.43;;;18.77;;
9759;SDS011;4919;48.792;9.202;2023-02-03T06:21:35;43.00;;;17.87;;
9759;SDS011;4919;48.792;9.202;2023-02-03T06:24:20;45.80;;;19.83;;
9759;SDS011;4919;48.792;9.202;2023-02-03T06:27:05;45.33;;;20.70;;
9759;SDS011;4919;48.792;9.202;2023-02-03T06:29:50;53.30;;;20.90;;
9759;SDS011;4919;48.792;9.202;2023-02-03T06:32:35;45.43;;;19.70;;
9759;SDS011;4919;48.792;9.202;2023-02-03T06:35:20;45.40;;;21.30;;
9759;SDS011;4919;48.792;9.202;2023-02-03T06:38:05;51.80;;;19.87;;
9759;SDS011;4919;48.792;9.202;2023-02-03T06:40:50;49.17;;;20.37;;
9759;SDS011;4919;48.792;9.202;2023-02-03T06:43:34;47.80;;;21.27;;
9759;SDS011;4919;48.792;9.202;2023-02-03T06:46:19;45.47;;;20.83;;
9759;SDS011;4919;48.792;9.202;2023-02-03T06:49:04;50.60;;;22.33;;
9759;SDS011;4919;48.792;9.202;2023-02-03T06:51:49;51.10;;;21.33;;
9759;SDS011;4919;48.792;9.202;2023-02-03T06:54:34;53.13;;;24.03;;
9759;SDS011;4919;48.792;9.202;2023-02-03T06:57:19;55.20;;;22.63;;
9759;SDS011;4919;48.792;9.202;2023-02-03T07:00:04;44.00;;;21.97;;
9759;SDS011;4919;48.792;9.202;2023-02-03T07:02:56;50.17;;;23.33;;
9759;SDS011;4919;48.792;9.202;2023-02-03T07:05:41;53.63;;;22.07;;
9759;SDS011;4919;48.792;9.202;2023-02-03T07:08:26;49.50;;;23.50;;
9759;SDS011;4919;48.792;9.202;2023-02-03T07:11:10;44.67;;;20.60;;
9759;SDS011;4919;48.792;9.202;2023-02-03T07:13:55;43.13;;;20.63;;
9759;SDS011;4919;48.792;9.202;2023-02-03T07:16:40;45.33;;;22.63;;
9759;SDS011;4919;48.792;9.202;2023-02-03T07:19:25;50.83;;;22.60;;
9759;SDS011;4919;48.792;9.202;2023-02-03T07:22:10;47.83;;;22.50;;
9759;SDS011;4919;48.792;9.202;2023-02-03T07:24:55;50.43;;;22.17;;
9759;SDS011;4919;48.792;9.202;2023-02-03T07:27:39;48.67;;;22.50;;
9759;SDS011;4919;48.792;9.202;2023-02-03T07:30:24;45.43;;;21.40;;
9759;SDS011;4919;48.792;9.202;2023-02-03T07:33:09;50.47;;;24.27;;
9759;SDS011;4919;48.792;9.202;2023-02-03T07:35:55;47.03;;;21.40;;
9759;SDS011;4919;48.792;9.202;2023-02-03T07:38:41;46.07;;;22.50;;
9759;SDS011;4919;48.792;9.202;2023-02-03T07:41:26;43.20;;;22.23;;
9759;SDS011;4919;48.792;9.202;2023-02-03T07:44:11;44.03;;;22.27;;
9759;SDS011;4919;48.792;9.202;2023-02-03T07:46:56;47.77;;;22.83;;
9759;SDS011;4919;48.792;9.202;2023-02-03T07:49:41;46.30;;;21.60;;
9759;SDS011;4919;48.792;9.202;2023-02-03T07:52:26;42.43;;;21.57;;
9759;SDS011;4919;48.792;9.202;2023-02-03T07:55:10;42.20;;;21.37;;
9759;SDS011;4919;48.792;9.202;2023-02-03T07:57:56;44.33;;;21.80;;
9759;SDS011;4919;48.792;9.202;2023-02-03T08:00:41;40.97;;;20.63;;
9759;SDS011;4919;48.792;9.202;2023-02-03T08:03:26;40.47;;;20.17;;
9759;SDS011;4919;48.792;9.202;2023-02-03T08:06:11;38.97;;;20.93;;
9759;SDS011;4919;48.792;9.202;2023-02-03T08:08:57;41.37;;;20.53;;
9759;SDS011;4919;48.792;9.202;2023-02-03T08:11:41;42.97;;;19.63;;
9759;SDS011;4919;48.792;9.202;2023-02-03T08:14:26;32.70;;;18.20;;
9759;SDS011;4919;48.792;9.202;2023-02-03T08:17:11;32.00;;;17.90;;
9759;SDS011;4919;48.792;9.202;2023-02-03T08:19:56;29.87;;;17.30;;
9759;SDS011;4919;48.792;9.202;2023-02-03T08:22:41;29.70;;;16.37;;
9759;SDS011;4919;48.792;9.202;2023-02-03T08:25:26;31.97;;;15.87;;
9759;SDS011;4919;48.792;9.202;2023-02-03T08:28:11;33.37;;;16.87;;
9759;SDS011;4919;48.792;9.202;2023-02-03T08:30:55;32.50;;;17.47;;
9759;SDS011;4919;48.792;9.202;2023-02-03T08:33:40;31.67;;;15.63;;
9759;SDS011;4919;48.792;9.202;2023-02-03T08:36:25;20.57;;;13.47;;
9759;SDS011;4919;48.792;9.202;2023-02-03T08:39:10;27.73;;;15.33;;
9759;SDS011;4919;48.792;9.202;2023-02-03T08:41:55;26.20;;;14.60;;
9759;SDS011;4919;48.792;9.202;2023-02-03T08:44:40;26.70;;;15.20;;
9759;SDS011;4919;48.792;9.202;2023-02-03T08:47:25;27.40;;;14.20;;
9759;SDS011;4919;48.792;9.202;2023-02-03T08:50:10;23.43;;;13.90;;
9759;SDS011;4919;48.792;9.202;2023-02-03T08:52:55;22.03;;;13.47;;
9759;SDS011;4919;48.792;9.202;2023-02-03T08:55:40;26.47;;;14.03;;
9759;SDS011;4919;48.792;9.202;2023-02-03T08:58:25;18.63;;;11.77;;
9759;SDS011;4919;48.792;9.202;2023-02-03T09:01:11;27.97;;;13.47;;
9759;SDS011;4919;48.792;9.202;2023-02-03T09:03:57;22.93;;;13.80;;
9759;SDS011;4919;48.792;9.202;2023-02-03T09:06:43;23.73;;;14.03;;
9759;SDS011;4919;48.792;9.202;2023-02-03T09:09:28;25.77;;;14.37;;
9759;SDS011;4919;48.792;9.202;2023-02-03T09:12:13;23.17;;;13.13;;
9759;SDS011;4919;48.792;9.202;2023-02-03T09:14:58;21.07;;;12.73;;
9759;SDS011;4919;48.792;9.202;2023-02-03T09:17:43;20.77;;;12.53;;
9759;SDS011;4919;48.792;9.202;2023-02-03T09:20:28;21.60;;;12.60;;
9759;SDS011;4919;48.792;9.202;2023-02-03T09:23:13;24.07;;;13.23;;
9759;SDS011;4919;48.792;9.202;2023-02-03T09:26:05;20.90;;;12.00;;
9759;SDS011;4919;48.792;9.202;2023-02-03T09:28:53;20.07;;;12.03;;
9759;SDS011;4919;48.792;9.202;2023-02-03T09:31:37;20.47;;;11.43;;
9759;SDS011;4919;48.792;9.202;2023-02-03T09:34:22;16.20;;;10.70;;
9759;SDS011;4919;48.792;9.202;2023-02-03T09:37:07;19.67;;;11.60;;
9759;SDS011;4919;48.792;9.202;2023-02-03T09:39:52;17.00;;;11.17;;
9759;SDS011;4919;48.792;9.202;2023-02-03T09:45:25;20.67;;;10.30;;
9759;SDS011;4919;48.792;9.202;2023-02-03T09:48:16;16.23;;;9.43;;
9759;SDS011;4919;48.792;9.202;2023-02-03T09:51:09;14.17;;;8.83;;
9759;SDS011;4919;48.792;9.202;2023-02-03T09:57:26;16.43;;;9.87;;
9759;SDS011;4919;48.792;9.202;2023-02-03T10:00:20;15.80;;;9.60;;
9759;SDS011;4919;48.792;9.202;2023-02-03T10:06:12;15.30;;;10.73;;
9759;SDS011;4919;48.792;9.202;2023-02-03T10:12:05;17.00;;;9.77;;
9759;SDS011;4919;48.792;9.202;2023-02-03T10:18:16;17.13;;;9.23;;
9759;SDS011;4919;48.792;9.202;2023-02-03T10:21:16;13.67;;;8.73;;
9759;SDS011;4919;48.792;9.202;2023-02-03T10:24:19;14.17;;;9.47;;
9759;SDS011;4919;48.792;9.202;2023-02-03T10:27:14;14.80;;;9.07;;
9759;SDS011;4919;48.792;9.202;2023-02-03T10:32:59;13.20;;;8.07;;
9759;SDS011;4919;48.792;9.202;2023-02-03T10:35:54;15.70;;;7.97;;
9759;SDS011;4919;48.792;9.202;2023-02-03T10:38:58;12.40;;;7.53;;
9759;SDS011;4919;48.792;9.202;2023-02-03T10:41:50;10.67;;;6.97;;
9759;SDS011;4919;48.792;9.202;2023-02-03T10:47:44;9.83;;;5.83;;
9759;SDS011;4919;48.792;9.202;2023-02-03T10:50:34;10.27;;;6.13;;
9759;SDS011;4919;48.792;9.202;2023-02-03T10:56:17;8.10;;;4.67;;
9759;SDS011;4919;48.792;9.202;2023-02-03T10:59:26;10.30;;;5.57;;
9759;SDS011;4919;48.792;9.202;2023-02-03T11:02:24;9.90;;;5.57;;
9759;SDS011;4919;48.792;9.202;2023-02-03T11:05:18;7.67;;;4.60;;
9759;SDS011;4919;48.792;9.202;2023-02-03T11:08:11;6.20;;;2.07;;
9759;SDS011;4919;48.792;9.202;2023-02-03T11:11:01;6.03;;;2.10;;
9759;SDS011;4919;48.792;9.202;2023-02-03T11:13:54;10.83;;;2.20;;
9759;SDS011;4919;48.792;9.202;2023-02-03T11:16:55;5.50;;;2.40;;
9759;SDS011;4919;48.792;9.202;2023-02-03T11:19:41;8.70;;;2.30;;
9759;SDS011;4919;48.792;9.202;2023-02-03T11:22:28;5.93;;;2.00;;
9759;SDS011;4919;48.792;9.202;2023-02-03T11:25:31;7.27;;;2.73;;
9759;SDS011;4919;48.792;9.202;2023-02-03T11:28:16;10.90;;;2.43;;
9759;SDS011;4919;48.792;9.202;2023-02-03T11:31:01;10.33;;;2.73;;
9759;SDS011;4919;48.792;9.202;2023-02-03T11:33:50;17.67;;;3.57;;
9759;SDS011;4919;48.792;9.202;2023-02-03T11:36:38;11.63;;;2.70;;
9759;SDS011;4919;48.792;9.202;2023-02-03T11:42:22;17.30;;;3.17;;
9759;SDS011;4919;48.792;9.202;2023-02-03T11:48:06;14.93;;;3.03;;
9759;SDS011;4919;48.792;9.202;2023-02-03T11:53:58;15.90;;;3.40;;
9759;SDS011;4919;48.792;9.202;2023-02-03T11:57:07;18.77;;;3.00;;
9759;SDS011;4919;48.792;9.202;2023-02-03T12:15:49;16.07;;;3.23;;
9759;SDS011;4919;48.792;9.202;2023-02-03T12:21:33;11.77;;;3.20;;
9759;SDS011;4919;48.792;9.202;2023-02-03T12:24:43;8.30;;;2.33;;
9759;SDS011;4919;48.792;9.202;2023-02-03T12:30:21;11.23;;;3.10;;
9759;SDS011;4919;48.792;9.202;2023-02-03T12:33:26;16.83;;;3.40;;
9759;SDS011;4919;48.792;9.202;2023-02-03T12:36:46;13.60;;;2.67;;
9759;SDS011;4919;48.792;9.202;2023-02-03T12:42:36;17.90;;;4.27;;
9759;SDS011;4919;48.792;9.202;2023-02-03T12:45:29;12.93;;;3.37;;
9759;SDS011;4919;48.792;9.202;2023-02-03T12:48:19;15.90;;;3.53;;
9759;SDS011;4919;48.792;9.202;2023-02-03T12:51:10;16.57;;;3.50;;
9759;SDS011;4919;48.792;9.202;2023-02-03T12:54:22;12.67;;;4.30;;
9759;SDS011;4919;48.792;9.202;2023-02-03T13:00:37;8.00;;;2.53;;
9759;SDS011;4919;48.792;9.202;2023-02-03T13:09:40;13.30;;;3.27;;
9759;SDS011;4919;48.792;9.202;2023-02-03T13:12:44;15.93;;;3.53;;
9759;SDS011;4919;48.792;9.202;2023-02-03T13:15:36;13.40;;;3.37;;
9759;SDS011;4919;48.792;9.202;2023-02-03T13:18:36;10.97;;;2.43;;
9759;SDS011;4919;48.792;9.202;2023-02-03T13:21:24;15.17;;;3.33;;
9759;SDS011;4919;48.792;9.202;2023-02-03T13:24:09;12.13;;;2.80;;
9759;SDS011;4919;48.792;9.202;2023-02-03T13:29:49;15.27;;;2.87;;
9759;SDS011;4919;48.792;9.202;2023-02-03T13:33:13;6.67;;;2.13;;
9759;SDS011;4919;48.792;9.202;2023-02-03T13:42:25;14.47;;;2.50;;
9759;SDS011;4919;48.792;9.202;2023-02-03T13:45:17;5.00;;;1.70;;
9759;SDS011;4919;48.792;9.202;2023-02-03T13:51:11;14.90;;;2.93;;
9759;SDS011;4919;48.792;9.202;2023-02-03T13:54:00;14.93;;;2.10;;
9759;SDS011;4919;48.792;9.202;2023-02-03T13:56:52;9.13;;;2.83;;
9759;SDS011;4919;48.792;9.202;2023-02-03T13:59:45;13.70;;;3.33;;
9759;SDS011;4919;48.792;9.202;2023-02-03T14:02:38;8.00;;;3.13;;
9759;SDS011;4919;48.792;9.202;2023-02-03T14:05:40;14.60;;;3.43;;
9759;SDS011;4919;48.792;9.202;2023-02-03T14:17:03;16.23;;;3.50;;
9759;SDS011;4919;48.792;9.202;2023-02-03T14:22:35;12.87;;;3.10;;
9759;SDS011;4919;48.792;9.202;2023-02-03T14:25:23;15.60;;;2.67;;
9759;SDS011;4919;48.792;9.202;2023-02-03T14:28:11;9.97;;;2.63;;
9759;SDS011;4919;48.792;9.202;2023-02-03T14:34:38;17.07;;;3.43;;
9759;SDS011;4919;48.792;9.202;2023-02-03T14:37:25;13.47;;;3.33;;
9759;SDS011;4919;48.792;9.202;2023-02-03T14:46:37;18.17;;;3.80;;
9759;SDS011;4919;48.792;9.202;2023-02-03T14:58:06;18.03;;;4.30;;
9759;SDS011;4919;48.792;9.202;2023-02-03T15:04:19;20.13;;;4.07;;
9759;SDS011;4919;48.792;9.202;2023-02-03T15:07:05;18.30;;;3.77;;
9759;SDS011;4919;48.792;9.202;2023-02-03T15:09:50;17.53;;;3.57;;
9759;SDS011;4919;48.792;9.202;2023-02-03T15:12:36;16.67;;;3.83;;
9759;SDS011;4919;48.792;9.202;2023-02-03T15:15:28;15.47;;;3.60;;
9759;SDS011;4919;48.792;9.202;2023-02-03T15:18:20;17.00;;;3.93;;
9759;SDS011;4919;48.792;9.202;2023-02-03T15:21:15;12.57;;;3.50;;
9759;SDS011;4919;48.792;9.202;2023-02-03T15:24:09;16.93;;;3.80;;
9759;SDS011;4919;48.792;9.202;2023-02-03T15:26:56;18.27;;;4.87;;
9759;SDS011;4919;48.792;9.202;2023-02-03T15:29:41;15.33;;;3.33;;
9759;SDS011;4919;48.792;9.202;2023-02-03T15:32:37;15.03;;;3.73;;
9759;SDS011;4919;48.792;9.202;2023-02-03T15:35:26;13.97;;;3.37;;
9759;SDS011;4919;48.792;9.202;2023-02-03T15:38:19;17.63;;;4.33;;
9759;SDS011;4919;48.792;9.202;2023-02-03T15:41:15;18.57;;;3.50;;
9759;SDS011;4919;48.792;9.202;2023-02-03T15:44:11;13.70;;;3.47;;
9759;SDS011;4919;48.792;9.202;2023-02-03T15:47:22;12.50;;;3.17;;
9759;SDS011;4919;48.792;9.202;2023-02-03T15:50:31;13.70;;;2.87;;
9759;SDS011;4919;48.792;9.202;2023-02-03T15:53:28;13.93;;;3.17;;
9759;SDS011;4919;48.792;9.202;2023-02-03T15:59:19;8.17;;;2.43;;
9759;SDS011;4919;48.792;9.202;2023-02-03T16:02:06;9.83;;;2.67;;
9759;SDS011;4919;48.792;9.202;2023-02-03T16:08:42;15.90;;;3.27;;
9759;SDS011;4919;48.792;9.202;2023-02-03T16:11:34;11.73;;;2.57;;
9759;SDS011;4919;48.792;9.202;2023-02-03T16:14:33;14.10;;;3.20;;
9759;SDS011;4919;48.792;9.202;2023-02-03T16:23:28;12.90;;;2.93;;
9759;SDS011;4919;48.792;9.202;2023-02-03T16:26:18;11.83;;;2.60;;
9759;SDS011;4919;48.792;9.202;2023-02-03T16:29:09;16.33;;;3.53;;
9759;SDS011;4919;48.792;9.202;2023-02-03T16:31:56;14.43;;;2.80;;
9759;SDS011;4919;48.792;9.202;2023-02-03T16:34:41;16.47;;;4.00;;
9759;SDS011;4919;48.792;9.202;2023-02-03T16:37:27;12.20;;;3.07;;
9759;SDS011;4919;48.792;9.202;2023-02-03T16:40:18;12.13;;;3.13;;
9759;SDS011;4919;48.792;9.202;2023-02-03T16:43:04;14.37;;;3.43;;
9759;SDS011;4919;48.792;9.202;2023-02-03T16:45:54;14.73;;;3.80;;
9759;SDS011;4919;48.792;9.202;2023-02-03T16:48:40;20.23;;;3.97;;
9759;SDS011;4919;48.792;9.202;2023-02-03T16:51:25;14.87;;;4.00;;
9759;SDS011;4919;48.792;9.202;2023-02-03T16:54:20;19.67;;;4.23;;
9759;SDS011;4919;48.792;9.202;2023-02-03T16:57:05;17.10;;;3.63;;
9759;SDS011;4919;48.792;9.202;2023-02-03T16:59:49;15.47;;;4.03;;
9759;SDS011;4919;48.792;9.202;2023-02-03T17:02:34;14.53;;;2.90;;
9759;SDS011;4919;48.792;9.202;2023-02-03T17:05:19;18.07;;;4.03;;
9759;SDS011;4919;48.792;9.202;2023-02-03T17:08:04;21.87;;;3.67;;
9759;SDS011;4919;48.792;9.202;2023-02-03T17:10:49;19.53;;;3.80;;
9759;SDS011;4919;48.792;9.202;2023-02-03T17:13:34;15.00;;;4.37;;
9759;SDS011;4919;48.792;9.202;2023-02-03T17:16:21;17.87;;;4.20;;
9759;SDS011;4919;48.792;9.202;2023-02-03T17:19:10;12.50;;;3.63;;
9759;SDS011;4919;48.792;9.202;2023-02-03T17:21:55;16.30;;;4.10;;
9759;SDS011;4919;48.792;9.202;2023-02-03T17:24:40;17.83;;;3.70;;
9759;SDS011;4919;48.792;9.202;2023-02-03T17:27:25;17.87;;;3.47;;
9759;SDS011;4919;48.792;9.202;2023-02-03T17:30:10;18.60;;;3.83;;
9759;SDS011;4919;48.792;9.202;2023-02-03T17:32:55;17.17;;;4.00;;
9759;SDS011;4919;48.792;9.202;2023-02-03T17:35:41;15.50;;;3.90;;
9759;SDS011;4919;48.792;9.202;2023-02-03T17:38:27;13.80;;;3.47;;
9759;SDS011;4919;48.792;9.202;2023-02-03T17:41:13;15.43;;;4.07;;
9759;SDS011;4919;48.792;9.202;2023-02-03T17:43:59;19.43;;;4.67;;
9759;SDS011;4919;48.792;9.202;2023-02-03T17:46:44;18.30;;;4.80;;
9759;SDS011;4919;48.792;9.202;2023-02-03T17:49:29;12.20;;;3.23;;
9759;SDS011;4919;48.792;9.202;2023-02-03T17:52:14;21.57;;;4.63;;
9759;SDS011;4919;48.792;9.202;2023-02-03T17:54:59;19.00;;;3.73;;
9759;SDS011;4919;48.792;9.202;2023-02-03T17:57:44;16.17;;;3.40;;
9759;SDS011;4919;48.792;9.202;2023-02-03T18:00:28;11.97;;;3.20;;
9759;SDS011;4919;48.792;9.202;2023-02-03T18:03:13;9.80;;;2.83;;
9759;SDS011;4919;48.792;9.202;2023-02-03T18:05:58;14.83;;;4.03;;
9759;SDS011;4919;48.792;9.202;2023-02-03T18:08:43;13.53;;;3.70;;
9759;SDS011;4919;48.792;9.202;2023-02-03T18:11:30;14.90;;;3.43;;
9759;SDS011;4919;48.792;9.202;2023-02-03T18:14:16;14.97;;;3.50;;
9759;SDS011;4919;48.792;9.202;2023-02-03T18:17:01;14.40;;;2.63;;
9759;SDS011;4919;48.792;9.202;2023-02-03T18:19:46;17.00;;;3.90;;
9759;SDS011;4919;48.792;9.202;2023-02-03T18:22:30;18.63;;;3.50;;
9759;SDS011;4919;48.792;9.202;2023-02-03T18:25:15;13.10;;;3.33;;
9759;SDS011;4919;48.792;9.202;2023-02-03T18:28:00;14.07;;;3.13;;
9759;SDS011;4919;48.792;9.202;2023-02-03T18:30:45;16.40;;;4.07;;
9759;SDS011;4919;48.792;9.202;2023-02-03T18:33:30;16.60;;;3.97;;
9759;SDS011;4919;48.792;9.202;2023-02-03T18:36:15;13.33;;;3.47;;
9759;SDS011;4919;48.792;9.202;2023-02-03T18:39:00;11.47;;;3.40;;
9759;SDS011;4919;48.792;9.202;2023-02-03T18:41:45;19.20;;;4.20;;
9759;SDS011;4919;48.792;9.202;2023-02-03T18:44:30;11.80;;;3.00;;
9759;SDS011;4919;48.792;9.202;2023-02-03T18:47:14;19.47;;;3.70;;
9759;SDS011;4919;48.792;9.202;2023-02-03T18:49:59;14.17;;;3.50;;
9759;SDS011;4919;48.792;9.202;2023-02-03T18:52:44;12.73;;;2.93;;
9759;SDS011;4919;48.792;9.202;2023-02-03T18:55:29;21.37;;;4.70;;
9759;SDS011;4919;48.792;9.202;2023-02-03T18:58:14;15.27;;;3.10;;
9759;SDS011;4919;48.792;9.202;2023-02-03T19:00:59;17.40;;;3.07;;
9759;SDS011;4919;48.792;9.202;2023-02-03T19:03:44;10.57;;;3.30;;
9759;SDS011;4919;48.792;9.202;2023-02-03T19:06:29;13.77;;;3.30;;
9759;SDS011;4919;48.792;9.202;2023-02-03T19:09:15;12.00;;;2.53;;
9759;SDS011;4919;48.792;9.202;2023-02-03T19:12:00;14.53;;;3.23;;
9759;SDS011;4919;48.792;9.202;2023-02-03T19:14:45;17.73;;;3.30;;
9759;SDS011;4919;48.792;9.202;2023-02-03T19:17:30;18.40;;;3.83;;
9759;SDS011;4919;48.792;9.202;2023-02-03T19:20:15;6.30;;;2.10;;
9759;SDS011;4919;48.792;9.202;2023-02-03T19:22:59;12.80;;;3.03;;
9759;SDS011;4919;48.792;9.202;2023-02-03T19:25:48;13.87;;;3.27;;
9759;SDS011;4919;48.792;9.202;2023-02-03T19:28:34;8.30;;;2.50;;
9759;SDS011;4919;48.792;9.202;2023-02-03T19:31:18;10.90;;;2.23;;